createdAt,value
2022-09-06T00:01:11.556Z,60.06
2022-09-06T00:04:15.540Z,60.26
2022-09-06T00:07:18.024Z,60.15
2022-09-06T00:10:20.777Z,60.19
2022-09-06T00:13:23.190Z,60.22
2022-09-06T00:16:30.155Z,60.39
2022-09-06T00:19:32.822Z,60.51
2022-09-06T00:22:37.109Z,60.51
2022-09-06T00:25:39.233Z,60.62
2022-09-06T00:28:42.188Z,60.65
2022-09-06T00:31:45.669Z,60.76
2022-09-06T00:34:48.201Z,60.75
2022-09-06T00:37:51.480Z,60.62
2022-09-06T00:40:54.206Z,60.75
2022-09-06T00:43:56.906Z,60.73
2022-09-06T00:46:59.617Z,60.84
2022-09-06T00:50:03.230Z,60.95
2022-09-06T00:53:06.006Z,61.40
2022-09-06T00:56:08.251Z,61.30
2022-09-06T00:59:11.157Z,62.30
2022-09-06T01:02:13.462Z,61.98
2022-09-06T01:05:17.050Z,62.51
2022-09-06T01:08:31.341Z,62.36
2022-09-06T01:11:41.677Z,62.25
2022-09-06T01:14:56.016Z,61.95
2022-09-06T01:18:31.751Z,61.67
2022-09-06T01:21:40.163Z,61.54
2022-09-06T01:25:14.141Z,61.39
2022-09-06T01:28:37.681Z,61.43
2022-09-06T01:31:55.101Z,61.52
2022-09-06T01:35:32.277Z,61.59
2022-09-06T01:38:36.018Z,62.55
2022-09-06T01:41:38.191Z,62.98
2022-09-06T01:44:45.824Z,63.94
2022-09-06T01:47:56.761Z,64.40
2022-09-06T01:51:19.792Z,63.51
2022-09-06T01:54:24.900Z,62.86
2022-09-06T01:57:53.112Z,62.44
2022-09-06T02:01:04.994Z,62.19
2022-09-06T02:04:12.955Z,62.01
2022-09-06T02:07:26.715Z,61.95
2022-09-06T02:10:36.737Z,61.86
2022-09-06T02:13:45.597Z,61.97
2022-09-06T02:16:51.239Z,62.03
2022-09-06T02:20:02.639Z,62.13
2022-09-06T02:23:08.796Z,62.14
2022-09-06T02:26:27.680Z,62.07
2022-09-06T02:29:30.311Z,62.00
2022-09-06T02:32:37.635Z,61.99
2022-09-06T02:35:49.812Z,62.11
2022-09-06T02:38:51.954Z,62.15
2022-09-06T02:41:55.245Z,62.27
2022-09-06T02:44:58.321Z,62.34
2022-09-06T02:48:01.184Z,62.37
2022-09-06T02:51:07.447Z,63.38
2022-09-06T02:54:09.944Z,65.57
2022-09-06T02:57:12.840Z,67.50
2022-09-06T03:00:15.389Z,68.03
2022-09-06T03:03:17.747Z,67.74
2022-09-06T03:06:20.267Z,67.24
2022-09-06T03:09:22.598Z,67.89
2022-09-06T03:12:25.079Z,71.81
2022-09-06T03:15:27.110Z,72.14
2022-09-06T03:18:31.063Z,69.58
2022-09-06T03:21:33.245Z,68.15
2022-09-06T03:24:35.517Z,67.50
2022-09-06T03:27:38.492Z,68.68
2022-09-06T03:30:44.798Z,68.48
2022-09-06T03:33:47.026Z,67.38
2022-09-06T03:36:49.401Z,66.16
2022-09-06T03:39:51.724Z,65.43
2022-09-06T03:42:54.314Z,65.01
2022-09-06T03:45:58.045Z,64.61
2022-09-06T03:49:02.096Z,64.34
2022-09-06T03:52:04.494Z,64.19
2022-09-06T03:55:08.064Z,64.09
2022-09-06T03:58:10.095Z,63.96
2022-09-06T04:01:13.720Z,63.90
2022-09-06T04:04:16.489Z,63.86
2022-09-06T04:07:19.005Z,63.81
2022-09-06T04:10:21.250Z,63.81
2022-09-06T04:13:25.577Z,63.75
2022-09-06T04:16:28.006Z,63.73
2022-09-06T04:19:30.369Z,63.71
2022-09-06T04:22:32.748Z,63.82
2022-09-06T04:25:35.354Z,63.90
2022-09-06T04:28:37.625Z,63.93
2022-09-06T04:31:40.320Z,63.78
2022-09-06T04:34:42.363Z,63.75
2022-09-06T04:37:45.180Z,63.68
2022-09-06T04:40:47.455Z,63.58
2022-09-06T04:43:55.888Z,63.45
2022-09-06T04:47:15.604Z,63.20
2022-09-06T04:50:18.979Z,63.10
2022-09-06T04:53:23.877Z,63.14
2022-09-06T04:56:27.122Z,63.21
2022-09-06T04:59:29.336Z,63.33
2022-09-06T05:02:32.015Z,63.26
2022-09-06T05:05:34.243Z,63.28
2022-09-06T05:08:39.365Z,63.30
2022-09-06T05:11:41.855Z,63.54
2022-09-06T05:14:44.338Z,63.62
2022-09-06T05:17:46.749Z,63.61
2022-09-06T05:20:53.929Z,63.64
2022-09-06T05:23:58.633Z,63.64
2022-09-06T05:27:04.060Z,63.61
2022-09-06T05:30:06.649Z,63.64
2022-09-06T05:33:10.740Z,63.63
2022-09-06T05:36:13.236Z,63.66
2022-09-06T05:39:15.896Z,63.56
2022-09-06T05:42:19.554Z,63.52
2022-09-06T05:45:22.268Z,63.53
2022-09-06T05:48:24.473Z,63.50
2022-09-06T05:51:27.350Z,63.52
2022-09-06T05:54:29.478Z,63.54
2022-09-06T05:57:32.198Z,63.58
2022-09-06T06:00:34.989Z,63.66
2022-09-06T06:03:37.850Z,63.73
2022-09-06T06:06:40.091Z,63.67
2022-09-06T06:09:42.826Z,63.45
2022-09-06T06:12:45.371Z,63.46
2022-09-06T06:15:47.892Z,63.32
2022-09-06T06:18:52.526Z,63.25
2022-09-06T06:21:56.546Z,63.38
2022-09-06T06:24:59.756Z,63.17
2022-09-06T06:28:02.788Z,63.11
2022-09-06T06:31:06.819Z,63.07
2022-09-06T06:34:09.972Z,62.93
2022-09-06T06:37:12.099Z,62.92
2022-09-06T06:40:14.746Z,62.89
2022-09-06T06:43:17.862Z,63.31
2022-09-06T06:46:25.521Z,63.54
2022-09-06T06:49:28.871Z,63.54
2022-09-06T06:52:32.101Z,63.74
2022-09-06T06:55:34.729Z,63.51
2022-09-06T06:58:37.071Z,63.39
2022-09-06T07:01:40.431Z,63.24
2022-09-06T07:04:43.581Z,63.11
2022-09-06T07:07:45.771Z,63.24
2022-09-06T07:10:48.107Z,63.07
2022-09-06T07:13:50.681Z,62.99
2022-09-06T07:16:58.603Z,62.87
2022-09-06T07:20:16.504Z,62.93
2022-09-06T07:26:42.254Z,63.09
2022-09-06T07:29:44.769Z,63.38
2022-09-06T07:32:47.010Z,63.41
2022-09-06T07:36:01.325Z,63.74
2022-09-06T07:39:04.061Z,64.08
2022-09-06T07:42:06.783Z,64.12
2022-09-06T07:45:09.810Z,63.77
2022-09-06T07:48:13.532Z,64.47
2022-09-06T07:51:18.950Z,64.50
2022-09-06T07:54:30.966Z,64.07
2022-09-06T07:57:33.799Z,63.94
2022-09-06T08:00:39.040Z,64.07
2022-09-06T08:03:41.415Z,63.86
2022-09-06T08:10:17.060Z,63.98
2022-09-06T08:13:20.890Z,64.02
2022-09-06T08:16:25.445Z,64.33
2022-09-06T08:19:28.291Z,64.64
2022-09-06T08:22:34.267Z,64.37
2022-09-06T08:25:36.673Z,63.99
2022-09-06T08:28:39.054Z,64.04
2022-09-06T08:31:43.589Z,64.02
2022-09-06T08:34:45.895Z,63.95
2022-09-06T08:37:48.498Z,64.04
2022-09-06T08:40:52.739Z,64.05
2022-09-06T08:47:21.747Z,64.57
2022-09-06T08:50:26.828Z,64.19
2022-09-06T08:53:29.980Z,62.95
2022-09-06T08:56:39.942Z,62.27
2022-09-06T08:59:43.270Z,62.01
2022-09-06T09:02:52.068Z,61.88
2022-09-06T09:05:54.971Z,61.80
2022-09-06T09:09:06.037Z,61.69
2022-09-06T09:12:12.408Z,61.72
2022-09-06T09:15:19.043Z,61.71
2022-09-06T09:18:26.814Z,61.72
2022-09-06T09:21:34.763Z,61.61
2022-09-06T09:24:37.835Z,61.58
2022-09-06T09:27:41.187Z,61.72
2022-09-06T09:31:02.035Z,61.69
2022-09-06T09:34:07.694Z,61.67
2022-09-06T09:41:06.031Z,61.61
2022-09-06T09:44:16.479Z,61.56
2022-09-06T09:47:30.480Z,61.48
2022-09-06T09:50:35.614Z,61.50
2022-09-06T09:53:51.575Z,61.46
2022-09-06T09:56:54.125Z,61.29
2022-09-06T10:00:04.839Z,61.44
2022-09-06T10:03:19.242Z,61.37
2022-09-06T10:09:58.881Z,60.93
2022-09-06T10:13:22.032Z,60.65
2022-09-06T10:16:43.805Z,60.73
2022-09-06T10:19:54.343Z,60.72
2022-09-06T10:23:09.812Z,60.51
2022-09-06T10:26:37.137Z,60.33
2022-09-06T10:29:56.279Z,60.18
2022-09-06T10:33:42.384Z,60.37
2022-09-06T10:36:57.999Z,60.16
2022-09-06T10:40:28.043Z,60.09
2022-09-06T10:43:44.947Z,59.74
2022-09-06T10:46:50.935Z,60.03
2022-09-06T10:49:59.099Z,60.05
2022-09-06T10:53:13.139Z,59.76
2022-09-06T10:56:27.748Z,59.60
2022-09-06T10:59:39.259Z,59.56
2022-09-06T11:06:31.145Z,57.73
2022-09-06T11:09:45.198Z,57.51
2022-09-06T11:13:18.691Z,58.13
2022-09-06T11:16:39.417Z,58.03
2022-09-06T11:20:04.044Z,58.56
2022-09-06T11:23:34.940Z,58.40
2022-09-06T11:26:59.390Z,57.24
2022-09-06T11:30:08.583Z,57.96
2022-09-06T11:33:19.688Z,56.77
2022-09-06T11:36:44.904Z,57.15
2022-09-06T11:40:30.241Z,56.88
2022-09-06T11:43:52.185Z,56.84
2022-09-06T11:46:54.966Z,57.66
2022-09-06T11:49:57.272Z,58.23
2022-09-06T11:53:15.840Z,58.22
2022-09-06T11:56:35.654Z,57.48
2022-09-06T12:00:07.161Z,57.91
2022-09-06T12:07:04.047Z,57.72
2022-09-06T12:10:31.058Z,57.73
2022-09-06T12:13:48.047Z,58.01
2022-09-06T12:16:56.946Z,58.49
2022-09-06T12:20:07.229Z,57.74
2022-09-06T12:23:31.005Z,58.05
2022-09-06T12:27:08.521Z,58.13
2022-09-06T12:30:14.589Z,57.54
2022-09-06T12:33:33.065Z,57.24
2022-09-06T12:36:36.430Z,56.47
2022-09-06T12:39:40.567Z,56.77
2022-09-06T12:42:46.770Z,57.20
2022-09-06T12:45:52.030Z,57.12
2022-09-06T12:49:02.321Z,56.70
2022-09-06T12:52:13.662Z,56.78
2022-09-06T12:55:24.146Z,57.02
2022-09-06T12:58:32.572Z,56.49
2022-09-06T13:01:37.534Z,56.97
2022-09-06T13:05:08.214Z,57.71
2022-09-06T13:08:19.174Z,56.03
2022-09-06T13:11:46.351Z,55.87
2022-09-06T13:14:54.222Z,55.84
2022-09-06T13:18:24.188Z,56.64
2022-09-06T13:21:33.726Z,57.23
2022-09-06T13:24:36.975Z,56.24
2022-09-06T13:27:46.537Z,56.27
2022-09-06T13:31:05.411Z,57.31
2022-09-06T13:34:08.863Z,56.82
2022-09-06T13:37:12.392Z,54.69
2022-09-06T13:40:53.875Z,56.30
2022-09-06T13:44:17.987Z,55.78
2022-09-06T13:47:20.910Z,55.59
2022-09-06T13:50:28.335Z,55.94
2022-09-06T13:53:32.144Z,54.92
2022-09-06T13:56:35.660Z,54.49
2022-09-06T13:59:38.527Z,55.22
2022-09-06T14:02:42.216Z,55.84
2022-09-06T14:05:46.281Z,55.69
2022-09-06T14:09:06.254Z,56.02
2022-09-06T14:12:12.327Z,56.01
2022-09-06T14:15:16.490Z,55.11
2022-09-06T14:18:19.448Z,54.67
2022-09-06T14:21:21.945Z,55.56
2022-09-06T14:24:24.298Z,55.31
2022-09-06T14:27:27.954Z,54.87
2022-09-06T14:30:33.318Z,55.74
2022-09-06T14:33:36.684Z,55.76
2022-09-06T14:36:39.740Z,55.07
2022-09-06T14:39:43.095Z,54.96
2022-09-06T14:42:50.405Z,55.58
2022-09-06T14:45:53.410Z,55.00
2022-09-06T14:49:04.384Z,55.00
2022-09-06T14:52:07.833Z,54.26
2022-09-06T14:55:10.603Z,54.93
2022-09-06T14:58:15.554Z,54.78
2022-09-06T15:01:24.599Z,55.03
2022-09-06T15:04:30.038Z,54.30
2022-09-06T15:07:33.245Z,54.72
2022-09-06T15:10:36.459Z,54.71
2022-09-06T15:13:44.508Z,54.78
2022-09-06T15:16:55.284Z,54.15
2022-09-06T15:19:59.102Z,53.75
2022-09-06T15:26:27.897Z,54.78
2022-09-06T15:29:32.005Z,53.32
2022-09-06T15:32:35.242Z,53.54
2022-09-06T15:35:42.202Z,54.60
2022-09-06T15:38:49.813Z,54.80
2022-09-06T15:41:57.168Z,53.67
2022-09-06T15:45:02.611Z,54.35
2022-09-06T15:48:07.359Z,54.15
2022-09-06T15:51:13.001Z,54.33
2022-09-06T15:54:40.574Z,53.17
2022-09-06T15:57:44.384Z,54.68
2022-09-06T16:00:51.075Z,53.44
2022-09-06T16:04:08.247Z,53.82
2022-09-06T16:07:13.847Z,54.33
2022-09-06T16:10:17.435Z,53.39
2022-09-06T16:13:21.248Z,54.94
2022-09-06T16:16:25.106Z,54.33
2022-09-06T16:19:27.565Z,54.39
2022-09-06T16:22:31.243Z,53.66
2022-09-06T16:25:35.466Z,53.89
2022-09-06T16:28:39.050Z,54.14
2022-09-06T16:31:43.160Z,54.36
2022-09-06T16:34:46.415Z,54.87
2022-09-06T16:37:49.619Z,54.95
2022-09-06T16:40:53.351Z,54.95
2022-09-06T16:43:57.365Z,54.70
2022-09-06T16:47:04.673Z,55.52
2022-09-06T16:50:07.497Z,56.23
2022-09-06T16:53:09.909Z,56.22
2022-09-06T16:56:16.314Z,57.06
2022-09-06T16:59:19.391Z,57.05
2022-09-06T17:02:24.467Z,57.13
2022-09-06T17:05:27.769Z,57.26
2022-09-06T17:08:33.680Z,57.51
2022-09-06T17:11:38.867Z,57.73
2022-09-06T17:14:41.709Z,57.96
2022-09-06T17:17:44.740Z,57.97
2022-09-06T17:21:08.274Z,57.88
2022-09-06T17:24:10.909Z,58.16
2022-09-06T17:27:13.574Z,58.23
2022-09-06T17:30:16.214Z,58.29
2022-09-06T17:33:21.832Z,58.29
2022-09-06T17:36:30.608Z,58.21
2022-09-06T17:39:33.911Z,58.72
2022-09-06T17:42:37.604Z,58.52
2022-09-06T17:45:47.257Z,58.48
2022-09-06T17:48:50.590Z,58.60
2022-09-06T17:51:53.848Z,58.56
2022-09-06T17:54:57.297Z,58.39
2022-09-06T17:58:06.857Z,58.43
2022-09-06T18:01:14.606Z,58.86
2022-09-06T18:04:19.484Z,59.02
2022-09-06T18:07:22.583Z,59.30
2022-09-06T18:10:25.656Z,59.75
2022-09-06T18:13:27.981Z,59.41
2022-09-06T18:16:35.352Z,59.39
2022-09-06T18:19:38.965Z,59.38
2022-09-06T18:22:45.294Z,59.17
2022-09-06T18:26:01.633Z,57.09
2022-09-06T18:29:13.234Z,58.13
2022-09-06T18:32:16.676Z,60.40
2022-09-06T18:35:19.806Z,59.14
2022-09-06T18:38:28.086Z,58.90
2022-09-06T18:41:54.835Z,58.48
2022-09-06T18:44:59.767Z,58.86
2022-09-06T18:48:03.011Z,58.78
2022-09-06T18:51:17.181Z,59.71
2022-09-06T18:54:27.527Z,59.77
2022-09-06T18:57:32.074Z,59.63
2022-09-06T19:00:38.321Z,61.05
2022-09-06T19:03:43.483Z,61.68
2022-09-06T19:06:48.532Z,62.87
2022-09-06T19:09:53.157Z,63.28
2022-09-06T19:13:01.510Z,62.43
2022-09-06T19:16:08.561Z,62.78
2022-09-06T19:19:15.006Z,61.97
2022-09-06T19:22:19.728Z,63.65
2022-09-06T19:25:27.177Z,63.15
2022-09-06T19:28:34.238Z,62.44
2022-09-06T19:31:40.532Z,62.19
2022-09-06T19:34:44.470Z,64.78
2022-09-06T19:37:50.266Z,67.20
2022-09-06T19:40:55.250Z,68.80
2022-09-06T19:43:59.907Z,68.92
2022-09-06T19:47:06.128Z,68.70
2022-09-06T19:50:11.109Z,69.85
2022-09-06T19:53:17.481Z,67.99
2022-09-06T19:56:35.173Z,67.02
2022-09-06T19:59:41.759Z,66.85
2022-09-06T20:02:46.083Z,66.52
2022-09-06T20:05:51.512Z,65.41
2022-09-06T20:09:03.313Z,66.79
2022-09-06T20:12:09.099Z,65.64
2022-09-06T20:15:14.986Z,66.76
2022-09-06T20:18:22.733Z,65.04
2022-09-06T20:21:30.187Z,63.91
2022-09-06T20:24:37.065Z,63.90
2022-09-06T20:27:44.696Z,63.43
2022-09-06T20:30:53.711Z,61.74
2022-09-06T20:34:08.556Z,62.76
2022-09-06T20:37:16.391Z,63.96
2022-09-06T20:40:23.140Z,62.02
2022-09-06T20:43:29.246Z,64.67
2022-09-06T20:46:37.602Z,66.25
2022-09-06T20:49:44.429Z,67.93
2022-09-06T20:52:54.533Z,69.45
2022-09-06T20:56:01.206Z,69.52
2022-09-06T20:59:08.315Z,69.08
2022-09-06T21:02:15.126Z,66.66
2022-09-06T21:05:24.741Z,65.68
2022-09-06T21:08:34.104Z,65.02
2022-09-06T21:11:42.668Z,64.66
2022-09-06T21:14:47.508Z,65.62
2022-09-06T21:17:51.280Z,65.71
2022-09-06T21:21:05.503Z,65.74
2022-09-06T21:24:09.070Z,64.90
2022-09-06T21:27:12.827Z,63.17
2022-09-06T21:30:18.294Z,62.36
2022-09-06T21:33:20.635Z,62.17
2022-09-06T21:36:33.258Z,62.16
2022-09-06T21:39:35.831Z,62.93
2022-09-06T21:42:40.352Z,63.78
2022-09-06T21:45:44.937Z,62.46
2022-09-06T21:48:49.943Z,62.28
2022-09-06T21:51:52.467Z,62.13
2022-09-06T21:54:54.911Z,61.72
2022-09-06T21:57:57.151Z,61.55
2022-09-06T22:01:04.967Z,67.02
2022-09-06T22:04:07.760Z,67.75
2022-09-06T22:07:12.273Z,64.29
2022-09-06T22:10:14.844Z,63.53
2022-09-06T22:13:19.667Z,66.11
2022-09-06T22:16:22.985Z,67.11
2022-09-06T22:19:25.994Z,70.82
2022-09-06T22:22:34.123Z,70.57
2022-09-06T22:25:36.987Z,72.80
2022-09-06T22:28:40.731Z,76.32
2022-09-06T22:31:43.897Z,75.28
2022-09-06T22:34:46.257Z,72.38
2022-09-06T22:37:50.003Z,71.85
2022-09-06T22:40:52.102Z,69.90
2022-09-06T22:43:54.924Z,70.31
2022-09-06T22:46:57.995Z,71.40
2022-09-06T22:50:00.481Z,74.63
2022-09-06T22:53:02.990Z,78.08
2022-09-06T22:56:07.271Z,81.48
2022-09-06T22:59:09.712Z,83.43
2022-09-06T23:02:12.722Z,83.55
2022-09-06T23:05:14.988Z,80.23
2022-09-06T23:08:17.482Z,79.87
2022-09-06T23:11:21.270Z,82.30
2022-09-06T23:14:23.914Z,84.54
2022-09-06T23:17:28.106Z,85.79
2022-09-06T23:20:31.137Z,86.61
2022-09-06T23:23:33.948Z,87.70
2022-09-06T23:26:37.568Z,88.37
2022-09-06T23:29:41.282Z,88.77
2022-09-06T23:32:43.536Z,88.00
2022-09-06T23:35:46.290Z,88.09
2022-09-06T23:38:48.965Z,87.87
2022-09-06T23:41:50.958Z,87.77
2022-09-06T23:44:57.756Z,86.77
2022-09-06T23:47:59.914Z,85.73
2022-09-06T23:51:02.274Z,86.33
2022-09-06T23:54:05.882Z,86.39
2022-09-06T23:57:08.429Z,85.90
